createdAt,value
2023-05-14T00:00:53.363Z,418.9231
2023-05-14T00:01:54.363Z,402.5385
2023-05-14T00:02:55.547Z,406.8462
2023-05-14T00:03:56.522Z,400.1538
2023-05-14T00:04:57.548Z,406.1538
2023-05-14T00:05:58.514Z,408.0000
2023-05-14T00:06:59.546Z,414.0000
2023-05-14T00:08:00.577Z,410.8462
2023-05-14T00:09:01.601Z,409.5385
2023-05-14T00:10:02.710Z,419.8462
2023-05-14T00:11:03.711Z,422.0000
2023-05-14T00:12:04.722Z,400.1538
2023-05-14T00:13:05.755Z,400.0000
2023-05-14T00:14:06.804Z,404.3077
2023-05-14T00:15:07.883Z,407.8462
2023-05-14T00:16:08.982Z,407.8462
2023-05-14T00:17:09.904Z,426.8462
2023-05-14T00:18:10.981Z,414.6923
2023-05-14T00:19:12.044Z,417.9231
2023-05-14T00:20:13.068Z,412.0769
2023-05-14T00:21:14.073Z,406.8462
2023-05-14T00:22:15.101Z,401.0769
2023-05-14T00:23:16.121Z,403.5385
2023-05-14T00:24:17.159Z,402.6154
2023-05-14T00:25:18.208Z,407.0000
2023-05-14T00:26:19.272Z,405.0769
2023-05-14T00:27:20.248Z,407.0769
2023-05-14T00:28:21.273Z,405.9231
2023-05-14T00:29:22.315Z,415.3846
2023-05-14T00:30:23.592Z,409.7692
2023-05-14T00:31:24.457Z,409.0769
2023-05-14T00:32:25.583Z,415.6923
2023-05-14T00:33:26.500Z,411.6154
2023-05-14T00:34:27.547Z,412.6154
2023-05-14T00:35:28.599Z,421.8462
2023-05-14T00:36:29.661Z,424.2308
2023-05-14T00:37:30.638Z,453.3846
2023-05-14T00:38:31.677Z,450.6923
2023-05-14T00:39:32.711Z,431.9231
2023-05-14T00:40:33.782Z,416.3846
2023-05-14T00:41:34.883Z,424.3846
2023-05-14T00:42:35.895Z,433.2308
2023-05-14T00:43:36.905Z,443.0769
2023-05-14T00:44:37.955Z,449.3846
2023-05-14T00:45:38.934Z,437.6154
2023-05-14T00:46:40.066Z,437.2308
2023-05-14T00:47:41.141Z,436.8462
2023-05-14T00:48:42.079Z,468.7692
2023-05-14T00:49:43.077Z,474.1538
2023-05-14T00:50:44.156Z,460.3846
2023-05-14T00:51:45.186Z,458.3077
2023-05-14T00:52:46.228Z,468.3846
2023-05-14T00:53:47.221Z,471.1538
2023-05-14T00:54:48.316Z,448.3077
2023-05-14T00:55:49.321Z,446.3846
2023-05-14T00:56:50.363Z,451.8462
2023-05-14T00:57:51.472Z,442.8462
2023-05-14T00:58:52.425Z,434.2308
2023-05-14T00:59:53.458Z,415.3846
2023-05-14T01:00:54.586Z,441.9231
2023-05-14T01:01:55.563Z,446.5385
2023-05-14T01:02:56.673Z,402.6923
2023-05-14T01:03:57.872Z,418.3077
2023-05-14T01:04:58.704Z,443.8462
2023-05-14T01:05:59.680Z,434.4615
2023-05-14T01:07:00.767Z,442.4615
2023-05-14T01:08:01.821Z,411.3077
2023-05-14T01:09:02.855Z,400.0000
2023-05-14T01:10:03.847Z,402.9231
2023-05-14T01:11:04.894Z,406.3077
2023-05-14T01:12:05.931Z,400.1538
2023-05-14T01:13:07.021Z,400.0000
2023-05-14T01:14:08.039Z,400.0769
2023-05-14T01:15:09.167Z,400.7692
2023-05-14T01:16:10.172Z,402.9231
2023-05-14T01:17:11.202Z,407.3846
2023-05-14T01:18:12.278Z,410.2308
2023-05-14T01:19:13.390Z,402.8462
2023-05-14T01:20:14.279Z,400.1538
2023-05-14T01:21:15.339Z,404.6923
2023-05-14T01:22:16.361Z,405.2308
2023-05-14T01:23:17.435Z,405.9231
2023-05-14T01:24:18.474Z,405.3077
2023-05-14T01:25:19.554Z,412.4615
2023-05-14T01:26:20.554Z,419.0000
2023-05-14T01:27:21.671Z,400.0000
2023-05-14T01:28:22.753Z,400.0000
2023-05-14T01:29:23.789Z,400.0000
2023-05-14T01:30:25.024Z,405.6154
2023-05-14T01:31:25.800Z,443.7692
2023-05-14T01:32:26.919Z,436.6923
2023-05-14T01:33:27.878Z,421.0000
2023-05-14T01:34:29.031Z,415.7692
2023-05-14T01:35:30.036Z,454.6154
2023-05-14T01:36:31.068Z,458.3846
2023-05-14T01:37:32.013Z,478.1538
2023-05-14T01:38:33.054Z,487.5385
2023-05-14T01:39:34.150Z,475.8462
2023-05-14T01:40:35.256Z,448.0000
2023-05-14T01:41:36.173Z,444.2308
2023-05-14T01:42:37.228Z,452.6923
2023-05-14T01:43:38.260Z,464.7692
2023-05-14T01:44:39.321Z,487.0000
2023-05-14T01:45:40.368Z,492.5385
2023-05-14T01:46:41.381Z,494.0769
2023-05-14T01:47:42.415Z,464.1538
2023-05-14T01:48:43.467Z,489.2308
2023-05-14T01:49:44.497Z,483.6923
2023-05-14T01:50:45.586Z,471.8462
2023-05-14T01:51:46.545Z,483.1538
2023-05-14T01:52:47.651Z,456.1538
2023-05-14T01:53:48.626Z,477.7692
2023-05-14T01:54:49.746Z,486.4615
2023-05-14T01:55:50.773Z,472.7692
2023-05-14T01:56:51.732Z,461.6154
2023-05-14T01:57:52.792Z,452.0769
2023-05-14T01:58:53.852Z,446.0000
2023-05-14T01:59:54.946Z,462.3077
2023-05-14T02:00:55.932Z,481.9231
2023-05-14T02:01:57.128Z,497.1538
2023-05-14T02:02:58.023Z,478.7692
2023-05-14T02:03:59.098Z,472.4615
2023-05-14T02:05:00.109Z,489.9231
2023-05-14T02:06:01.169Z,490.6923
2023-05-14T02:07:02.091Z,503.1538
2023-05-14T02:08:03.180Z,509.0000
2023-05-14T02:09:04.276Z,490.5385
2023-05-14T02:10:05.304Z,428.2308
2023-05-14T02:11:06.384Z,420.9231
2023-05-14T02:12:07.388Z,437.1538
2023-05-14T02:13:08.335Z,423.3077
2023-05-14T02:14:09.436Z,431.9231
2023-05-14T02:15:10.496Z,469.2308
2023-05-14T02:16:11.534Z,488.4615
2023-05-14T02:17:12.488Z,478.9231
2023-05-14T02:18:13.599Z,468.0000
2023-05-14T02:19:14.666Z,486.7692
2023-05-14T02:20:15.807Z,479.4615
2023-05-14T02:21:16.695Z,448.2308
2023-05-14T02:22:17.708Z,461.3077
2023-05-14T02:23:20.594Z,451.2308
2023-05-14T02:24:19.800Z,455.5385
2023-05-14T02:25:20.881Z,477.9231
2023-05-14T02:26:21.946Z,457.6154
2023-05-14T02:27:22.907Z,475.6154
2023-05-14T02:28:23.989Z,453.8462
2023-05-14T02:29:24.991Z,416.1538
2023-05-14T02:30:26.126Z,431.6154
2023-05-14T02:31:27.173Z,442.3846
2023-05-14T02:32:28.348Z,469.6923
2023-05-14T02:33:29.203Z,486.0000
2023-05-14T02:34:30.170Z,497.1538
2023-05-14T02:35:31.280Z,504.3846
2023-05-14T02:36:32.291Z,506.6923
2023-05-14T02:37:33.253Z,497.0769
2023-05-14T02:38:34.352Z,494.1538
2023-05-14T02:39:35.348Z,489.6154
2023-05-14T02:40:36.469Z,465.5385
2023-05-14T02:41:37.517Z,451.8462
2023-05-14T02:42:38.520Z,460.5385
2023-05-14T02:43:39.496Z,442.4615
2023-05-14T02:44:40.655Z,435.7692
2023-05-14T02:45:41.621Z,421.3077
2023-05-14T02:46:42.745Z,415.4615
2023-05-14T02:47:43.750Z,434.0000
2023-05-14T02:48:44.773Z,439.2308
2023-05-14T02:49:45.739Z,439.2308
2023-05-14T02:50:46.834Z,446.4615
2023-05-14T02:51:47.853Z,453.5385
2023-05-14T02:52:48.860Z,475.1538
2023-05-14T02:53:49.911Z,467.2308
2023-05-14T02:54:50.919Z,456.5385
2023-05-14T02:55:52.059Z,443.6923
2023-05-14T02:56:53.062Z,440.4615
2023-05-14T02:57:54.153Z,445.6154
2023-05-14T02:58:55.109Z,431.2308
2023-05-14T02:59:56.114Z,402.2308
2023-05-14T03:00:57.224Z,403.0000
2023-05-14T03:01:58.341Z,405.6923
2023-05-14T03:02:59.259Z,409.7692
2023-05-14T03:04:00.305Z,416.6923
2023-05-14T03:05:01.295Z,403.2308
2023-05-14T03:06:02.435Z,420.3077
2023-05-14T03:07:03.436Z,434.0769
2023-05-14T03:08:04.416Z,442.9231
2023-05-14T03:09:05.477Z,422.4615
2023-05-14T03:10:06.470Z,425.6923
2023-05-14T03:11:07.546Z,424.2308
2023-05-14T03:12:08.728Z,403.1538
2023-05-14T03:13:09.614Z,423.5385
2023-05-14T03:14:10.634Z,448.1538
2023-05-14T03:15:11.696Z,471.3846
2023-05-14T03:16:12.755Z,484.4615
2023-05-14T03:17:13.813Z,473.6923
2023-05-14T03:18:14.790Z,465.5385
2023-05-14T03:19:15.885Z,477.5385
2023-05-14T03:20:16.839Z,481.4615
2023-05-14T03:21:17.987Z,491.1538
2023-05-14T03:22:18.976Z,494.6923
2023-05-14T03:23:20.017Z,498.5385
2023-05-14T03:24:20.971Z,499.9231
2023-05-14T03:25:22.030Z,500.7692
2023-05-14T03:26:23.108Z,495.9231
2023-05-14T03:27:24.149Z,498.7692
2023-05-14T03:28:25.134Z,492.6923
2023-05-14T03:29:26.147Z,474.6923
2023-05-14T03:30:27.285Z,487.5385
2023-05-14T03:31:28.281Z,486.3077
2023-05-14T03:32:29.360Z,493.7692
2023-05-14T03:33:30.310Z,481.1538
2023-05-14T03:34:31.355Z,477.3077
2023-05-14T03:35:32.378Z,486.1538
2023-05-14T03:36:33.496Z,483.2308
2023-05-14T03:37:34.506Z,485.5385
2023-05-14T03:38:35.592Z,492.0769
2023-05-14T03:39:36.548Z,493.4615
2023-05-14T03:40:37.669Z,491.9231
2023-05-14T03:41:38.648Z,494.6154
2023-05-14T03:42:39.793Z,494.2308
2023-05-14T03:43:40.720Z,500.5385
2023-05-14T03:44:41.713Z,507.2308
2023-05-14T03:45:42.828Z,495.5385
2023-05-14T03:46:43.843Z,495.6154
2023-05-14T03:47:44.869Z,501.2308
2023-05-14T03:48:45.915Z,501.8462
2023-05-14T03:49:46.894Z,505.5385
2023-05-14T03:50:48.027Z,506.9231
2023-05-14T03:51:49.019Z,503.3846
2023-05-14T03:52:50.075Z,503.0000
2023-05-14T03:53:51.055Z,504.5385
2023-05-14T03:54:52.093Z,498.9231
2023-05-14T03:55:53.112Z,498.9231
2023-05-14T03:56:54.276Z,492.2308
2023-05-14T03:57:55.273Z,460.6923
2023-05-14T03:58:56.266Z,439.3846
2023-05-14T03:59:57.268Z,413.3077
2023-05-14T04:00:58.349Z,407.1538
2023-05-14T04:01:59.393Z,409.5385
2023-05-14T04:03:00.607Z,426.2308
2023-05-14T04:04:01.616Z,415.6923
2023-05-14T04:05:02.454Z,400.1538
2023-05-14T04:06:03.578Z,400.0000
2023-05-14T04:07:04.582Z,400.0769
2023-05-14T04:08:05.647Z,402.7692
2023-05-14T04:09:06.598Z,424.7692
2023-05-14T04:10:07.686Z,445.0000
2023-05-14T04:11:08.710Z,430.9231
2023-05-14T04:12:09.780Z,409.9231
2023-05-14T04:13:10.909Z,407.6154
2023-05-14T04:14:11.807Z,418.2308
2023-05-14T04:15:12.924Z,429.6154
2023-05-14T04:16:14.024Z,408.3077
2023-05-14T04:17:14.979Z,402.4615
2023-05-14T04:18:16.073Z,402.3846
2023-05-14T04:19:17.151Z,406.3077
2023-05-14T04:20:18.021Z,435.5385
2023-05-14T04:21:19.057Z,437.6923
2023-05-14T04:22:20.156Z,428.9231
2023-05-14T04:23:21.216Z,432.1538
2023-05-14T04:24:22.206Z,427.2308
2023-05-14T04:25:23.225Z,414.6154
2023-05-14T04:26:24.349Z,441.0000
2023-05-14T04:27:25.351Z,455.0000
2023-05-14T04:28:26.391Z,462.3077
2023-05-14T04:29:27.422Z,472.6154
2023-05-14T04:30:28.434Z,482.3077
2023-05-14T04:31:29.591Z,493.6154
2023-05-14T04:32:30.642Z,481.3846
2023-05-14T04:33:31.587Z,427.3846
2023-05-14T04:34:32.665Z,427.3846
2023-05-14T04:35:33.710Z,420.5385
2023-05-14T04:36:34.664Z,452.3077
2023-05-14T04:37:35.786Z,476.4615
2023-05-14T04:38:36.836Z,445.9231
2023-05-14T04:39:37.784Z,427.3846
2023-05-14T04:40:38.824Z,409.6923
2023-05-14T04:41:39.872Z,405.4615
2023-05-14T04:42:40.981Z,419.0769
2023-05-14T04:43:41.985Z,439.0769
2023-05-14T04:44:42.986Z,462.9231
2023-05-14T04:45:44.068Z,441.9231
2023-05-14T04:46:45.076Z,418.6923
2023-05-14T04:47:46.225Z,415.3846
2023-05-14T04:48:47.229Z,414.6923
2023-05-14T04:49:48.141Z,415.2308
2023-05-14T04:50:49.188Z,412.5385
2023-05-14T04:51:50.228Z,400.8462
2023-05-14T04:52:51.352Z,411.0769
2023-05-14T04:53:52.382Z,440.0000
2023-05-14T04:54:53.358Z,457.4615
2023-05-14T04:55:54.383Z,470.6923
2023-05-14T04:56:55.421Z,474.0769
2023-05-14T04:57:56.502Z,485.3077
2023-05-14T04:58:57.533Z,472.8462
2023-05-14T04:59:58.548Z,457.7692
2023-05-14T05:00:59.714Z,467.6154
2023-05-14T05:02:00.629Z,460.2308
2023-05-14T05:03:01.800Z,460.3077
2023-05-14T05:04:02.764Z,465.0769
2023-05-14T05:05:03.742Z,476.1538
2023-05-14T05:06:04.800Z,425.0000
2023-05-14T05:07:05.869Z,425.8462
2023-05-14T05:08:06.947Z,431.0000
2023-05-14T05:09:07.939Z,409.1538
2023-05-14T05:10:08.995Z,415.0000
2023-05-14T05:11:10.014Z,406.5385
2023-05-14T05:12:11.024Z,420.5385
2023-05-14T05:13:12.090Z,421.1538
2023-05-14T05:14:13.149Z,402.0769
2023-05-14T05:15:14.215Z,412.0769
2023-05-14T05:16:15.325Z,427.3077
2023-05-14T05:17:16.289Z,441.3077
2023-05-14T05:18:17.360Z,455.1538
2023-05-14T05:19:19.730Z,451.3077
2023-05-14T05:20:19.392Z,446.1538
2023-05-14T05:21:20.421Z,465.0769
2023-05-14T05:22:21.510Z,479.6923
2023-05-14T05:23:22.552Z,482.6923
2023-05-14T05:24:23.590Z,473.6923
2023-05-14T05:25:24.552Z,456.6154
2023-05-14T05:26:25.617Z,445.0000
2023-05-14T05:27:26.658Z,430.5385
2023-05-14T05:28:27.757Z,421.3846
2023-05-14T05:29:28.841Z,437.0000
2023-05-14T05:30:29.793Z,434.3077
2023-05-14T05:31:30.854Z,424.8462
2023-05-14T05:32:31.936Z,413.6923
2023-05-14T05:33:32.973Z,402.0000
2023-05-14T05:34:34.036Z,402.8462
2023-05-14T05:35:34.952Z,400.0000
2023-05-14T05:36:35.997Z,400.0000
2023-05-14T05:37:37.038Z,400.0000
2023-05-14T05:38:38.161Z,400.3077
2023-05-14T05:39:39.179Z,403.0000
2023-05-14T05:40:40.183Z,433.1538
2023-05-14T05:41:41.205Z,452.5385
2023-05-14T05:42:42.233Z,445.2308
2023-05-14T05:43:43.297Z,474.3077
2023-05-14T05:44:44.386Z,478.0000
2023-05-14T05:45:45.352Z,485.8462
2023-05-14T05:46:46.498Z,492.3846
2023-05-14T05:47:47.531Z,499.8462
2023-05-14T05:48:48.492Z,493.1538
2023-05-14T05:49:49.580Z,487.2308
2023-05-14T05:50:50.547Z,482.6154
2023-05-14T05:51:51.653Z,486.6923
2023-05-14T05:52:52.638Z,497.3846
2023-05-14T05:53:53.704Z,476.0000
2023-05-14T05:54:54.730Z,455.9231
2023-05-14T05:55:55.746Z,442.6154
2023-05-14T05:56:56.870Z,426.0769
2023-05-14T05:57:57.847Z,401.1538
2023-05-14T05:58:58.938Z,400.3077
2023-05-14T05:59:59.996Z,415.2308
2023-05-14T06:01:00.957Z,452.7692
2023-05-14T06:02:02.028Z,452.0000
2023-05-14T06:03:03.113Z,460.0000
2023-05-14T06:04:04.086Z,453.8462
2023-05-14T06:05:05.138Z,431.4615
2023-05-14T06:06:06.099Z,415.3077
2023-05-14T06:07:07.234Z,408.5385
2023-05-14T06:08:08.190Z,413.5385
2023-05-14T06:09:09.260Z,400.8462
2023-05-14T06:10:10.283Z,418.3846
2023-05-14T06:11:11.299Z,455.2308
2023-05-14T06:12:12.299Z,433.4615
2023-05-14T06:13:13.404Z,400.0000
2023-05-14T06:14:14.541Z,401.7692
2023-05-14T06:15:15.532Z,404.8462
2023-05-14T06:16:16.537Z,439.6923
2023-05-14T06:17:17.560Z,447.3077
2023-05-14T06:18:18.592Z,436.7692
2023-05-14T06:19:19.711Z,413.7692
2023-05-14T06:20:20.816Z,416.2308
2023-05-14T06:21:21.670Z,430.6154
2023-05-14T06:22:22.746Z,442.4615
2023-05-14T06:23:23.758Z,462.3846
2023-05-14T06:24:24.878Z,470.3846
2023-05-14T06:25:25.920Z,425.3077
2023-05-14T06:26:26.969Z,403.5385
2023-05-14T06:27:27.921Z,402.6154
2023-05-14T06:28:29.014Z,401.0769
2023-05-14T06:29:30.073Z,400.1538
2023-05-14T06:30:31.001Z,400.0000
2023-05-14T06:31:32.013Z,400.0000
2023-05-14T06:32:33.045Z,400.0000
2023-05-14T06:33:34.082Z,400.0000
2023-05-14T06:34:35.183Z,400.0000
2023-05-14T06:35:36.153Z,400.0000
2023-05-14T06:36:37.193Z,404.9231
2023-05-14T06:37:38.217Z,438.4615
2023-05-14T06:38:39.273Z,420.0000
2023-05-14T06:39:40.299Z,401.2308
2023-05-14T06:40:41.382Z,407.6923
2023-05-14T06:41:42.354Z,423.9231
2023-05-14T06:42:43.420Z,439.1538
2023-05-14T06:43:44.433Z,443.4615
2023-05-14T06:44:45.542Z,465.5385
2023-05-14T06:45:46.541Z,425.0000
2023-05-14T06:46:47.564Z,422.8462
2023-05-14T06:47:48.619Z,414.1538
2023-05-14T06:48:49.693Z,404.1538
2023-05-14T06:49:50.714Z,416.3077
2023-05-14T06:50:51.771Z,417.2308
2023-05-14T06:51:52.806Z,411.3846
2023-05-14T06:52:53.831Z,417.8462
2023-05-14T06:53:54.838Z,422.4615
2023-05-14T06:54:55.879Z,426.7692
2023-05-14T06:55:56.939Z,420.2308
2023-05-14T06:56:58.009Z,409.6154
2023-05-14T06:57:59.006Z,438.8462
2023-05-14T06:59:00.054Z,409.8462
2023-05-14T07:00:03.262Z,403.6154
2023-05-14T07:01:02.172Z,400.5385
2023-05-14T07:02:03.189Z,400.0000
2023-05-14T07:03:04.237Z,400.0000
2023-05-14T07:04:05.237Z,404.3077
2023-05-14T07:05:06.273Z,415.1538
2023-05-14T07:06:07.323Z,403.3846
2023-05-14T07:07:08.374Z,412.3077
2023-05-14T07:08:09.373Z,409.3846
2023-05-14T07:09:10.416Z,428.2308
2023-05-14T07:10:11.427Z,426.1538
2023-05-14T07:11:12.517Z,431.2308
2023-05-14T07:12:13.516Z,417.3846
2023-05-14T07:13:14.550Z,433.2308
2023-05-14T07:14:15.576Z,438.5385
2023-05-14T07:15:16.640Z,404.6923
2023-05-14T07:16:17.709Z,418.5385
2023-05-14T07:17:18.854Z,405.3077
2023-05-14T07:18:19.712Z,436.3077
2023-05-14T07:19:20.771Z,415.8462
2023-05-14T07:20:22.031Z,408.1538
2023-05-14T07:21:22.905Z,430.5385
2023-05-14T07:22:23.879Z,426.7692
2023-05-14T07:23:24.933Z,426.1538
2023-05-14T07:24:25.947Z,459.4615
2023-05-14T07:25:26.995Z,441.6923
2023-05-14T07:26:28.041Z,433.7692
2023-05-14T07:27:29.078Z,413.8462
2023-05-14T07:28:30.114Z,437.7692
2023-05-14T07:29:31.115Z,476.2308
2023-05-14T07:30:32.210Z,501.5385
2023-05-14T07:31:33.270Z,515.3846
2023-05-14T07:32:34.283Z,456.3846
2023-05-14T07:33:35.278Z,432.9231
2023-05-14T07:34:36.324Z,435.8462
2023-05-14T07:35:37.314Z,419.7692
2023-05-14T07:36:38.410Z,434.0000
2023-05-14T07:37:39.433Z,464.9231
2023-05-14T07:38:40.456Z,463.0000
2023-05-14T07:39:41.488Z,458.6923
2023-05-14T07:40:42.528Z,425.7692
2023-05-14T07:41:43.641Z,429.5385
2023-05-14T07:42:44.626Z,432.0000
2023-05-14T07:43:45.606Z,459.9231
2023-05-14T07:44:46.651Z,494.9231
2023-05-14T07:45:47.695Z,519.6923
2023-05-14T07:46:48.772Z,531.0000
2023-05-14T07:47:49.803Z,475.5385
2023-05-14T07:48:50.818Z,470.5385
2023-05-14T07:49:51.816Z,446.3846
2023-05-14T07:50:52.860Z,419.6154
2023-05-14T07:51:53.877Z,430.0769
2023-05-14T07:52:55.026Z,444.2308
2023-05-14T07:53:55.926Z,434.2308
2023-05-14T07:54:56.977Z,439.1538
2023-05-14T07:55:58.225Z,458.0000
2023-05-14T07:56:59.082Z,444.8462
2023-05-14T07:58:00.158Z,426.7692
2023-05-14T07:59:01.115Z,457.3077
2023-05-14T08:00:02.156Z,459.0769
2023-05-14T08:01:03.179Z,430.4615
2023-05-14T08:02:04.276Z,430.1538
2023-05-14T08:03:05.456Z,443.8462
2023-05-14T08:04:06.384Z,432.1538
2023-05-14T08:05:07.317Z,446.3077
2023-05-14T08:06:08.298Z,434.1538
2023-05-14T08:07:09.411Z,432.0000
2023-05-14T08:08:10.395Z,447.3077
2023-05-14T08:09:11.395Z,442.5385
2023-05-14T08:10:12.489Z,433.9231
2023-05-14T08:11:13.477Z,454.6923
2023-05-14T08:12:14.552Z,437.5385
2023-05-14T08:13:15.576Z,417.3846
2023-05-14T08:14:16.575Z,439.4615
2023-05-14T08:15:17.623Z,428.0000
2023-05-14T08:16:18.660Z,423.4615
2023-05-14T08:17:19.753Z,448.1538
2023-05-14T08:18:20.721Z,423.7692
2023-05-14T08:19:21.797Z,428.9231
2023-05-14T08:20:23.058Z,431.2308
2023-05-14T08:21:23.836Z,440.0769
2023-05-14T08:22:24.899Z,408.6923
2023-05-14T08:23:25.985Z,444.2308
2023-05-14T08:24:26.899Z,454.5385
2023-05-14T08:25:27.933Z,422.4615
2023-05-14T08:26:28.980Z,441.7692
2023-05-14T08:27:30.056Z,442.3846
2023-05-14T08:28:31.119Z,443.4615
2023-05-14T08:29:32.097Z,426.6154
2023-05-14T08:30:33.162Z,408.2308
2023-05-14T08:31:34.155Z,439.1538
2023-05-14T08:32:35.244Z,407.5385
2023-05-14T08:33:36.264Z,401.0000
2023-05-14T08:34:37.297Z,400.9231
2023-05-14T08:35:38.321Z,404.0000
2023-05-14T08:36:39.388Z,428.6923
2023-05-14T08:37:40.383Z,402.5385
2023-05-14T08:38:41.433Z,400.0000
2023-05-14T08:39:42.582Z,400.0000
2023-05-14T08:40:43.497Z,400.0000
2023-05-14T08:41:44.543Z,408.9231
2023-05-14T08:42:45.611Z,419.1538
2023-05-14T08:43:46.616Z,401.5385
2023-05-14T08:44:47.638Z,411.1538
2023-05-14T08:45:48.660Z,400.5385
2023-05-14T08:46:49.677Z,413.6154
2023-05-14T08:47:50.991Z,422.2308
2023-05-14T08:48:51.828Z,417.2308
2023-05-14T08:49:52.885Z,417.0769
2023-05-14T08:50:53.885Z,400.3846
2023-05-14T08:51:54.895Z,402.5385
2023-05-14T08:52:55.885Z,422.7692
2023-05-14T08:53:57.004Z,431.9231
2023-05-14T08:54:58.005Z,419.7692
2023-05-14T08:55:59.064Z,417.9231
2023-05-14T08:57:00.046Z,430.8462
2023-05-14T08:58:01.109Z,409.4615
2023-05-14T08:59:02.266Z,431.5385
2023-05-14T09:00:03.299Z,468.1538
2023-05-14T09:01:04.399Z,464.3077
2023-05-14T09:02:26.259Z,426.1538
2023-05-14T09:03:06.460Z,434.7778
2023-05-14T09:04:07.468Z,450.3846
2023-05-14T09:05:08.571Z,445.3846
2023-05-14T09:06:09.545Z,437.7692
2023-05-14T09:07:10.532Z,416.0769
2023-05-14T09:08:11.571Z,435.8462
2023-05-14T09:09:12.650Z,444.6923
2023-05-14T09:10:13.668Z,449.6923
2023-05-14T09:11:14.755Z,433.6154
2023-05-14T09:12:15.733Z,426.3846
2023-05-14T09:13:16.757Z,463.3846
2023-05-14T09:14:17.753Z,448.4615
2023-05-14T09:15:18.996Z,415.3846
2023-05-14T09:16:20.057Z,443.0769
2023-05-14T09:17:21.052Z,438.8462
2023-05-14T09:18:21.996Z,435.8462
2023-05-14T09:19:23.155Z,401.7692
2023-05-14T09:20:24.286Z,401.2308
2023-05-14T09:21:25.164Z,400.0000
2023-05-14T09:22:26.135Z,409.2308
2023-05-14T09:23:27.289Z,442.6154
2023-05-14T09:24:28.214Z,444.6923
2023-05-14T09:25:29.390Z,461.0000
2023-05-14T09:26:30.343Z,472.6154
2023-05-14T09:27:31.331Z,438.4615
2023-05-14T09:28:32.354Z,435.6923
2023-05-14T09:29:33.443Z,421.0000
2023-05-14T09:30:34.506Z,406.6154
2023-05-14T09:31:35.568Z,418.9231
2023-05-14T09:32:36.512Z,425.8462
2023-05-14T09:33:37.663Z,409.4615
2023-05-14T09:34:38.581Z,425.4615
2023-05-14T09:35:39.713Z,430.3077
2023-05-14T09:36:40.715Z,437.4615
2023-05-14T09:37:41.710Z,428.1538
2023-05-14T09:38:42.714Z,442.9231
2023-05-14T09:39:43.842Z,457.5385
2023-05-14T09:40:44.929Z,426.3846
2023-05-14T09:41:45.917Z,448.7692
2023-05-14T09:42:46.869Z,463.1538
2023-05-14T09:43:48.003Z,430.7692
2023-05-14T09:44:48.973Z,446.0769
2023-05-14T09:45:50.080Z,437.1538
2023-05-14T09:46:51.108Z,429.6154
2023-05-14T09:47:52.181Z,408.2308
2023-05-14T09:48:53.095Z,400.4615
2023-05-14T09:49:54.175Z,408.7692
2023-05-14T09:50:55.214Z,401.6154
2023-05-14T09:51:56.282Z,400.6154
2023-05-14T09:52:57.293Z,425.4615
2023-05-14T09:53:58.279Z,451.7692
2023-05-14T09:54:59.310Z,455.5385
2023-05-14T09:56:00.414Z,439.0000
2023-05-14T09:57:01.413Z,421.5385
2023-05-14T09:58:02.450Z,428.5385
2023-05-14T09:59:03.494Z,436.2308
2023-05-14T10:00:04.527Z,462.6154
2023-05-14T10:01:05.676Z,515.3077
2023-05-14T10:02:06.656Z,477.8462
2023-05-14T10:03:07.701Z,442.3077
2023-05-14T10:04:08.734Z,449.0769
2023-05-14T10:05:09.775Z,443.3077
2023-05-14T10:06:10.794Z,434.0000
2023-05-14T10:07:11.791Z,425.3077
2023-05-14T10:08:12.824Z,406.6923
2023-05-14T10:09:14.056Z,413.3077
2023-05-14T10:10:14.860Z,452.6154
2023-05-14T10:11:16.006Z,443.3846
2023-05-14T10:12:17.072Z,435.3846
2023-05-14T10:13:17.982Z,421.9231
2023-05-14T10:14:19.020Z,425.2308
2023-05-14T10:15:20.029Z,412.1538
2023-05-14T10:16:21.169Z,413.2308
2023-05-14T10:17:22.149Z,406.1538
2023-05-14T10:18:23.174Z,400.0000
2023-05-14T10:19:24.342Z,400.0000
2023-05-14T10:20:25.482Z,400.3077
2023-05-14T10:21:26.359Z,420.4615
2023-05-14T10:22:27.370Z,423.6923
2023-05-14T10:23:28.311Z,407.2308
2023-05-14T10:24:29.353Z,401.6154
2023-05-14T10:25:30.453Z,417.1538
2023-05-14T10:26:31.527Z,408.7692
2023-05-14T10:27:32.510Z,458.1538
2023-05-14T10:28:33.531Z,501.0000
2023-05-14T10:29:34.573Z,530.2308
2023-05-14T10:30:35.593Z,518.3846
2023-05-14T10:31:36.850Z,481.3077
2023-05-14T10:32:37.730Z,489.9231
2023-05-14T10:33:38.745Z,480.6154
2023-05-14T10:34:39.691Z,438.9231
2023-05-14T10:35:40.752Z,436.4615
2023-05-14T10:36:41.789Z,450.5385
2023-05-14T10:37:42.897Z,474.3077
2023-05-14T10:38:43.898Z,510.0000
2023-05-14T10:39:44.872Z,511.2308
2023-05-14T10:40:45.905Z,529.1539
2023-05-14T10:41:46.953Z,524.6154
2023-05-14T10:42:48.031Z,520.6154
2023-05-14T10:43:49.117Z,496.8462
2023-05-14T10:44:50.032Z,478.0000
2023-05-14T10:45:51.084Z,476.2308
2023-05-14T10:46:52.170Z,468.0769
2023-05-14T10:47:53.272Z,468.8462
2023-05-14T10:48:54.294Z,483.4615
2023-05-14T10:49:55.129Z,508.3846
2023-05-14T10:50:56.192Z,540.7692
2023-05-14T10:51:57.236Z,539.1539
2023-05-14T10:52:58.336Z,555.5385
2023-05-14T10:53:59.294Z,561.3077
2023-05-14T10:55:02.879Z,539.9231
2023-05-14T10:56:01.377Z,537.6923
2023-05-14T10:57:02.389Z,532.0000
2023-05-14T10:58:03.456Z,525.9231
2023-05-14T10:59:04.463Z,526.3077
2023-05-14T11:00:05.482Z,553.4615
2023-05-14T11:01:06.553Z,573.0000
2023-05-14T11:02:07.724Z,575.7692
2023-05-14T11:03:08.675Z,565.7692
2023-05-14T11:04:09.675Z,536.5385
2023-05-14T11:05:10.645Z,519.7692
2023-05-14T11:06:11.691Z,542.9231
2023-05-14T11:07:12.690Z,544.6923
2023-05-14T11:08:13.798Z,556.2308
2023-05-14T11:09:14.797Z,571.1539
2023-05-14T11:10:15.797Z,591.2308
2023-05-14T11:11:16.818Z,590.9231
2023-05-14T11:12:17.852Z,603.8461
2023-05-14T11:13:18.981Z,599.9231
2023-05-14T11:14:19.955Z,567.6154
2023-05-14T11:15:20.977Z,556.0000
2023-05-14T11:16:23.734Z,537.1539
2023-05-14T11:17:23.069Z,519.3077
2023-05-14T11:18:24.101Z,472.0000
2023-05-14T11:19:25.180Z,463.2308
2023-05-14T11:20:26.336Z,446.3077
2023-05-14T11:21:27.232Z,436.3846
2023-05-14T11:22:28.190Z,449.0769
2023-05-14T11:23:29.315Z,466.1538
2023-05-14T11:24:30.429Z,454.3077
2023-05-14T11:25:31.388Z,439.0769
2023-05-14T11:26:32.452Z,433.6154
2023-05-14T11:27:33.396Z,446.3077
2023-05-14T11:28:34.660Z,461.4615
2023-05-14T11:29:35.500Z,474.3846
2023-05-14T11:30:36.536Z,495.6923
2023-05-14T11:31:37.595Z,513.3077
2023-05-14T11:32:38.681Z,474.6154
2023-05-14T11:33:39.659Z,455.8462
2023-05-14T11:34:40.726Z,479.2308
2023-05-14T11:35:41.755Z,474.9231
2023-05-14T11:36:42.720Z,478.2308
2023-05-14T11:37:43.759Z,462.7692
2023-05-14T11:38:44.816Z,452.3077
2023-05-14T11:39:45.842Z,432.3846
2023-05-14T11:40:46.897Z,462.0769
2023-05-14T11:41:47.921Z,458.0000
2023-05-14T11:42:48.955Z,453.0000
2023-05-14T11:43:49.959Z,470.2308
2023-05-14T11:44:51.017Z,459.2308
2023-05-14T11:45:52.124Z,477.0769
2023-05-14T11:46:53.136Z,456.3846
2023-05-14T11:47:54.272Z,462.4615
2023-05-14T11:48:55.332Z,436.8462
2023-05-14T11:49:56.330Z,451.6923
2023-05-14T11:50:57.440Z,472.0000
2023-05-14T11:51:58.507Z,454.6154
2023-05-14T11:52:59.477Z,447.1538
2023-05-14T11:54:00.482Z,473.8462
2023-05-14T11:55:01.577Z,456.0000
2023-05-14T11:56:02.598Z,427.0000
2023-05-14T11:57:03.629Z,487.0000